Havelock, North Dakota
Current Conditions -  °F | °C
As of 12:12 PM on Thursday 30 Oct 2014 (Local Time) from KDIK Reporting Station
Overcast Overcast  
Wind Chill: 31°   Ceiling: 1400
Heat Index: 37°   Visibility: 7mi
Dew Point: 31°   Wind: 8mph
Humidity: 79%   Direction: 10°N
Pressure: 30.37"   Gusts: NA
Location:  46.4704°N, 102.78°W
Report Text: KDIK 301812Z AUTO 01007KT 7SM OVC014 03/M01 A3037 RMK AO2 T00281006
Loading
Personal Weather Stations






























Interactive Weather Map
Tropical Storm Tracking
New forecast layout! Learn more

10-Day Weather Forecast

Advertisements
Track Severe Weather on mobile